Time;durP1;ratioP1;P1;durP2;ratioP2;P2;SDS_P1;SDS_P2;PMS_P1;PMS_P2;Temp;Humidity;BMP_temperature;BMP_pressure;BME280_temperature;BME280_humidity;BME280_pressure;Samples;Min_cycle;Max_cycle;Signal;HPM_P1;HPM_P2
2022/05/01 04:03:56;;;;;;;;;;;;;;;;;;;;;
2022/05/01 04:06:23;;;;;;;9.33;5.90;;;9.00;1.00;;;;;;6262107;22;41853;-83
2022/05/01 04:08:52;;;;;;;9.27;6.27;;;9.00;1.00;;;;;;6275933;22;20419;-85
2022/05/01 04:11:21;;;;;;;11.00;4.80;;;9.00;1.00;;;;;;6275203;22;20375;-83
2022/05/01 04:13:53;;;;;;;10.30;5.80;;;9.00;1.00;;;;;;6275255;22;20499;-83
2022/05/01 04:16:21;;;;;;;12.17;6.33;;;9.10;1.00;;;;;;6277314;22;20418;-84
2022/05/01 04:18:52;;;;;;;16.73;6.37;;;9.10;1.00;;;;;;6276368;22;20481;-85
2022/05/01 04:21:23;;;;;;;9.43;5.22;;;9.10;1.00;;;;;;6273999;22;20391;-82
2022/05/01 04:23:52;;;;;;;11.10;5.53;;;9.10;1.00;;;;;;6272477;22;20200;-83
2022/05/01 04:26:25;;;;;;;10.40;6.10;;;9.20;1.00;;;;;;6272932;22;20212;-83
2022/05/01 04:31:42;;;;;;;8.50;5.03;;;9.20;1.00;;;;;;6271402;22;20956;-83
2022/05/01 04:34:12;;;;;;;8.70;5.03;;;9.20;1.00;;;;;;6273901;22;20391;-84
2022/05/01 04:36:43;;;;;;;13.13;6.17;;;9.30;1.00;;;;;;6274368;22;20824;-84
2022/05/01 04:39:20;;;;;;;14.60;5.80;;;9.30;1.00;;;;;;6273807;22;20426;-84
2022/05/01 04:41:54;;;;;;;8.27;5.00;;;9.30;1.00;;;;;;6273009;22;20400;-85
2022/05/01 04:44:23;;;;;;;11.33;5.67;;;9.30;1.00;;;;;;6274827;22;21583;-83
2022/05/01 04:46:52;;;;;;;12.90;7.00;;;9.40;1.00;;;;;;6274873;22;20573;-83
2022/05/01 04:49:22;;;;;;;9.67;6.33;;;9.40;1.00;;;;;;6276379;22;21053;-83
2022/05/01 04:51:51;;;;;;;9.53;5.57;;;9.40;1.00;;;;;;6273491;22;20434;-83
2022/05/01 04:54:23;;;;;;;11.00;5.47;;;9.40;1.00;;;;;;6276463;22;20414;-83
2022/05/01 04:57:12;;;;;;;10.07;5.67;;;9.50;1.00;;;;;;6276124;22;20470;-83
2022/05/01 04:59:45;;;;;;;8.60;5.30;;;9.60;1.00;;;;;;6276432;22;21361;-84
2022/05/01 05:02:11;;;;;;;8.40;5.80;;;9.70;1.00;;;;;;6273559;22;21170;-83
2022/05/01 05:04:42;;;;;;;9.20;5.43;;;9.80;1.00;;;;;;6274002;22;20419;-83
2022/05/01 05:07:11;;;;;;;14.13;7.40;;;9.90;1.00;;;;;;6273097;22;20488;-83
2022/05/01 05:09:55;;;;;;;11.27;5.00;;;9.90;1.00;;;;;;6271764;22;20428;-83
2022/05/01 05:12:22;;;;;;;11.00;5.20;;;9.90;1.00;;;;;;6271820;22;20439;-83
2022/05/01 05:14:52;;;;;;;9.90;5.20;;;10.00;1.00;;;;;;6270937;22;21197;-83
2022/05/01 05:17:22;;;;;;;10.90;6.40;;;10.00;1.00;;;;;;6273210;22;20498;-83
2022/05/01 05:19:52;;;;;;;9.17;5.57;;;10.10;1.00;;;;;;6270865;22;20438;-84
2022/05/01 05:22:24;;;;;;;8.50;5.50;;;10.20;1.00;;;;;;6270163;22;20423;-83
2022/05/01 05:24:52;;;;;;;12.33;5.73;;;10.30;1.00;;;;;;6271808;22;20482;-83
2022/05/01 05:27:30;;;;;;;11.17;6.43;;;10.30;1.00;;;;;;6275869;22;21569;-83
2022/05/01 05:30:03;;;;;;;11.00;6.00;;;10.30;1.00;;;;;;6273567;22;20483;-82
2022/05/01 05:32:32;;;;;;;8.87;5.70;;;10.40;1.00;;;;;;6273039;22;20490;-83
2022/05/01 05:35:03;;;;;;;11.37;5.20;;;10.50;1.00;;;;;;6272757;22;20945;-83
2022/05/01 05:37:32;;;;;;;9.60;5.33;;;10.60;1.00;;;;;;6273578;22;20415;-83
2022/05/01 05:40:06;;;;;;;9.37;5.10;;;10.80;1.00;;;;;;6272278;22;20513;-85
2022/05/01 05:42:33;;;;;;;8.77;4.90;;;10.90;1.00;;;;;;6271707;22;20426;-84
2022/05/01 05:45:13;;;;;;;8.27;5.23;;;11.00;1.00;;;;;;6273698;22;20403;-84
2022/05/01 05:47:42;;;;;;;9.93;5.27;;;11.10;1.00;;;;;;6276628;22;20391;-82
2022/05/01 05:50:13;;;;;;;10.07;4.67;;;11.30;1.00;;;;;;6278388;22;20416;-83
2022/05/01 05:52:43;;;;;;;11.40;5.60;;;11.40;1.00;;;;;;6278396;22;20388;-83
2022/05/01 05:55:13;;;;;;;9.43;5.80;;;11.60;1.00;;;;;;6279711;22;20407;-83
2022/05/01 05:57:51;;;;;;;10.40;5.83;;;11.70;1.00;;;;;;6277851;22;20466;-83
2022/05/01 06:00:26;;;;;;;9.33;5.03;;;11.90;1.00;;;;;;6278216;22;20470;-83
2022/05/01 06:02:53;;;;;;;8.70;5.03;;;12.00;1.00;;;;;;6276322;22;20813;-83
2022/05/01 06:05:23;;;;;;;8.57;5.20;;;12.20;1.00;;;;;;6273778;22;20427;-84
2022/05/01 06:07:51;;;;;;;11.77;5.40;;;12.30;1.00;;;;;;6275762;22;20412;-84
2022/05/01 06:10:21;;;;;;;11.13;4.90;;;12.30;1.00;;;;;;6275728;22;20499;-83
2022/05/01 06:12:52;;;;;;;7.87;4.70;;;12.50;1.00;;;;;;6272132;22;20459;-83
2022/05/01 06:15:22;;;;;;;11.20;4.40;;;12.70;1.00;;;;;;6273751;22;20489;-83
2022/05/01 06:17:54;;;;;;;9.90;4.70;;;12.80;1.00;;;;;;6275670;22;20460;-85
2022/05/01 06:20:22;;;;;;;8.93;4.57;;;12.90;1.00;;;;;;6275613;22;20431;-83
2022/05/01 06:23:05;;;;;;;;;;;;;;;;;;;;;
2022/05/01 06:25:32;;;;;;;8.83;4.90;;;13.10;1.00;;;;;;6262415;22;40848;-83
2022/05/01 06:28:05;;;;;;;11.03;5.47;;;13.10;1.00;;;;;;6272047;22;20432;-83
2022/05/01 06:30:33;;;;;;;12.27;5.10;;;13.20;1.00;;;;;;6273381;22;20543;-84
2022/05/01 06:33:26;;;;;;;;;;;;;;;;;;;;;
2022/05/01 06:35:55;;;;;;;8.80;4.67;;;13.30;1.00;;;;;;6273095;22;40489;-83
2022/05/01 06:38:24;;;;;;;9.20;4.60;;;13.20;1.00;;;;;;6274328;22;21053;-84
2022/05/01 06:40:52;;;;;;;8.27;4.40;;;13.40;1.00;;;;;;6270799;22;20448;-83
2022/05/01 06:43:21;;;;;;;11.23;4.53;;;13.50;1.00;;;;;;6272463;22;20413;-82
2022/05/01 06:45:54;;;;;;;9.97;4.70;;;13.60;1.00;;;;;;6273181;22;20498;-83
2022/05/01 06:48:23;;;;;;;9.30;5.40;;;13.70;1.00;;;;;;6272403;22;20799;-83
2022/05/01 06:50:54;;;;;;;8.23;4.67;;;13.70;1.00;;;;;;6274968;22;20413;-84
2022/05/01 06:53:22;;;;;;;10.53;4.60;;;13.80;1.00;;;;;;6276191;22;20406;-84
2022/05/01 06:55:50;;;;;;;13.20;5.10;;;14.00;1.00;;;;;;6273150;22;21191;-83
2022/05/01 06:58:21;;;;;;;11.43;5.33;;;14.10;1.00;;;;;;6274147;22;20461;-83
2022/05/01 07:00:54;;;;;;;9.73;4.20;;;14.20;1.00;;;;;;6272464;22;20426;-83
2022/05/01 07:03:23;;;;;;;9.37;4.53;;;14.30;1.00;;;;;;6273794;22;20858;-84
2022/05/01 07:05:55;;;;;;;9.20;4.20;;;14.40;1.00;;;;;;6272671;22;20433;-84
2022/05/01 07:08:24;;;;;;;10.20;4.90;;;14.40;1.00;;;;;;6274590;22;20469;-85
2022/05/01 07:10:52;;;;;;;8.87;4.03;;;14.50;1.00;;;;;;6270670;22;20433;-84
2022/05/01 07:13:21;;;;;;;9.40;4.97;;;14.70;1.00;;;;;;6270945;22;20406;-84
2022/05/01 07:15:53;;;;;;;7.97;4.27;;;14.90;1.00;;;;;;6273249;22;20411;-83
2022/05/01 07:18:20;;;;;;;9.17;4.60;;;15.00;1.00;;;;;;6272859;22;20497;-83
2022/05/01 07:20:53;;;;;;;11.83;4.50;;;15.10;1.00;;;;;;6271125;22;21087;-83
2022/05/01 07:23:22;;;;;;;9.73;4.43;;;15.20;1.00;;;;;;6269465;22;21270;-82
2022/05/01 07:25:54;;;;;;;10.63;4.67;;;15.30;1.00;;;;;;6271945;22;20410;-83
2022/05/01 07:28:22;;;;;;;11.67;4.33;;;15.30;1.00;;;;;;6273100;22;20387;-83
2022/05/01 07:30:54;;;;;;;11.70;4.80;;;15.30;1.00;;;;;;6272394;22;20433;-83
2022/05/01 07:33:23;;;;;;;11.30;5.20;;;15.30;1.00;;;;;;6274443;22;20464;-84
2022/05/01 07:35:53;;;;;;;8.30;4.77;;;15.50;1.00;;;;;;6276565;22;20410;-84
2022/05/01 07:38:22;;;;;;;9.57;4.27;;;15.70;1.00;;;;;;6275640;22;20518;-84
2022/05/01 07:40:55;;;;;;;8.20;4.10;;;15.80;1.00;;;;;;6276607;22;20391;-84
2022/05/01 07:43:24;;;;;;;8.80;4.53;;;16.00;1.00;;;;;;6274019;22;20438;-84
2022/05/01 07:45:53;;;;;;;9.77;4.30;;;16.40;1.00;;;;;;6276200;22;20424;-84
2022/05/01 07:48:22;;;;;;;8.90;4.47;;;16.60;1.00;;;;;;6275306;22;20420;-84
2022/05/01 07:50:55;;;;;;;9.70;3.70;;;16.90;1.00;;;;;;6276440;22;20395;-84
2022/05/01 07:53:33;;;;;;;9.30;4.23;;;17.20;1.00;;;;;;6275441;22;20400;-83
2022/05/01 07:56:03;;;;;;;9.43;4.47;;;17.50;1.00;;;;;;6284498;22;20424;-84
2022/05/01 07:58:56;;;;;;;;;;;;;;;;;;;;;
2022/05/01 08:01:23;;;;;;;9.60;4.20;;;17.90;1.00;;;;;;6279724;22;41147;-83
2022/05/01 08:06:53;;;;;;;9.87;4.30;;;17.90;1.00;;;;;;6154582;23;20405;-83
2022/05/01 08:09:24;;;;;;;13.53;5.57;;;17.90;1.00;;;;;;6252461;22;20416;-84
2022/05/01 08:11:53;;;;;;;8.87;4.10;;;17.90;1.00;;;;;;6278355;22;20495;-83
2022/05/01 08:14:26;;;;;;;11.10;5.17;;;18.10;1.00;;;;;;6276960;22;20468;-83
2022/05/01 08:16:56;;;;;;;8.80;4.00;;;18.30;1.00;;;;;;6278896;22;20417;-84
2022/05/01 08:46:23;;;;;;;;;;;;;;;;;;;;;
2022/05/01 08:49:16;;;;;;;10.43;4.57;;;19.40;1.00;;;;;;6060069;23;41342;-89
2022/05/01 08:52:05;;;;;;;9.77;4.27;;;19.60;1.00;;;;;;6061650;23;20423;-87
2022/05/01 08:55:05;;;;;;;11.63;5.00;;;19.60;1.00;;;;;;6121795;23;20417;-89
2022/05/01 08:57:55;;;;;;;9.20;3.70;;;19.70;1.00;;;;;;6179180;23;20414;-87
2022/05/01 09:10:43;;;;;;;8.93;4.30;;;19.80;1.00;;;;;;5966768;23;21264;-87
2022/05/01 09:13:16;;;;;;;9.33;3.93;;;19.60;1.00;;;;;;6115637;23;20435;-86
2022/05/01 09:16:15;;;;;;;10.73;4.70;;;19.30;1.00;;;;;;6118479;23;20913;-86
2022/05/01 09:19:22;;;;;;;8.93;4.23;;;19.30;1.00;;;;;;6117438;23;20808;-88
2022/05/01 09:22:53;;;;;;;10.03;4.03;;;19.20;1.00;;;;;;6117173;23;20416;-88
2022/05/01 09:36:15;;;;;;;;;;;;;;;;;;;;;
2022/05/01 10:29:36;;;;;;;11.97;9.73;;;18.80;1.00;;;;;;6008625;23;21266;-88
2022/05/01 10:33:31;;;;;;;9.67;4.20;;;18.70;1.00;;;;;;6092688;23;20426;-87
2022/05/01 10:36:46;;;;;;;9.60;4.47;;;18.70;1.00;;;;;;6196261;23;20614;-86
2022/05/01 10:40:06;;;;;;;9.40;3.70;;;18.80;1.00;;;;;;6184285;23;20525;-86
2022/05/01 10:45:53;;;;;;;10.60;4.17;;;18.60;1.00;;;;;;6278454;22;20403;-87
2022/05/01 10:49:02;;;;;;;10.30;4.23;;;18.50;1.00;;;;;;6281778;22;20389;-86
2022/05/01 10:52:15;;;;;;;8.27;3.87;;;18.40;1.00;;;;;;6278818;22;20401;-86
2022/05/01 10:58:26;;;;;;;8.83;3.90;;;18.20;1.00;;;;;;6271100;22;20402;-84
2022/05/01 11:00:56;;;;;;;8.00;3.80;;;18.20;1.00;;;;;;6273302;22;20414;-83
2022/05/01 11:03:34;;;;;;;7.87;4.27;;;18.10;1.00;;;;;;6275194;22;21087;-85
2022/05/01 11:06:15;;;;;;;15.80;6.00;;;18.20;1.00;;;;;;6274674;22;20444;-84
2022/05/01 11:08:46;;;;;;;12.00;6.17;;;18.10;1.00;;;;;;6251254;22;20431;-83
2022/05/01 11:11:14;;;;;;;14.40;4.80;;;18.20;1.00;;;;;;6246466;22;20464;-83
2022/05/01 11:13:42;;;;;;;9.80;3.77;;;18.10;1.00;;;;;;6241917;22;20493;-82
2022/05/01 11:16:12;;;;;;;9.90;4.10;;;18.10;1.00;;;;;;6238690;22;20426;-84
2022/05/01 11:21:48;;;;;;;14.60;4.90;;;18.20;1.00;;;;;;6234215;22;20413;-82
2022/05/01 11:24:15;;;;;;;9.70;3.90;;;18.20;1.00;;;;;;6237684;22;21728;-84
2022/05/01 11:27:16;;;;;;;11.07;4.40;;;18.30;1.00;;;;;;6239878;22;20474;-84
2022/05/01 11:30:21;;;;;;;9.93;4.87;;;18.30;1.00;;;;;;6239359;22;20530;-84
2022/05/01 11:33:14;;;;;;;8.33;3.93;;;18.30;1.00;;;;;;6188594;22;20540;-84
2022/05/01 11:36:05;;;;;;;11.73;4.90;;;18.30;1.00;;;;;;6228493;22;21078;-84
2022/05/01 11:38:54;;;;;;;8.77;3.77;;;18.40;1.00;;;;;;6240900;22;20421;-84
2022/05/01 11:41:44;;;;;;;10.63;5.23;;;18.50;1.00;;;;;;6239147;22;20421;-84
2022/05/01 11:44:30;;;;;;;11.57;4.67;;;18.50;1.00;;;;;;6242047;22;20406;-84
2022/05/01 11:47:17;;;;;;;;;;;;;;;;;;;;;
2022/05/01 11:49:45;;;;;;;11.60;4.43;;;18.60;1.00;;;;;;6238480;22;39004;-85
2022/05/01 11:52:17;;;;;;;8.10;3.63;;;18.60;1.00;;;;;;6240396;22;21246;-84
2022/05/01 11:54:54;;;;;;;8.03;3.67;;;18.70;1.00;;;;;;6236015;22;20454;-84
2022/05/01 12:03:06;;;;;;;9.53;3.70;;;18.60;1.00;;;;;;6239065;22;20485;-85
2022/05/01 12:05:55;;;;;;;9.80;4.60;;;18.60;1.00;;;;;;6240446;22;20402;-84
2022/05/01 12:08:25;;;;;;;10.23;4.10;;;18.60;1.00;;;;;;6239559;22;20441;-85
2022/05/01 12:10:55;;;;;;;8.33;3.60;;;18.50;1.00;;;;;;6241032;22;20483;-84
2022/05/01 12:13:27;;;;;;;9.37;4.00;;;18.30;1.00;;;;;;6242323;22;20451;-84
2022/05/01 12:16:02;;;;;;;8.20;3.43;;;18.10;1.00;;;;;;6241495;22;20438;-84
2022/05/01 12:18:34;;;;;;;12.33;5.23;;;18.10;1.00;;;;;;6243002;22;20408;-84
2022/05/01 12:21:05;;;;;;;10.77;5.77;;;17.90;1.00;;;;;;6242352;22;20464;-85
2022/05/01 12:23:34;;;;;;;9.93;4.30;;;17.80;1.00;;;;;;6241077;22;20405;-84
2022/05/01 12:26:24;;;;;;;11.33;4.73;;;17.80;1.00;;;;;;6239598;22;20408;-84
2022/05/01 12:29:03;;;;;;;10.67;5.00;;;17.80;1.00;;;;;;6240109;22;20495;-85
2022/05/01 12:32:26;;;;;;;8.63;4.60;;;17.70;1.00;;;;;;6237774;22;20455;-84
2022/05/01 12:35:34;;;;;;;;;;;;;;;;;;;;;
2022/05/01 12:38:25;;;;;;;12.03;5.30;;;17.70;1.00;;;;;;6239391;22;38824;-85
2022/05/01 12:44:36;;;;;;;10.10;5.60;;;17.80;1.00;;;;;;6177431;22;21055;-84
2022/05/01 12:50:57;;;;;;;14.20;4.57;;;17.70;1.00;;;;;;6237691;22;20432;-85
2022/05/01 13:02:43;;;;;;;9.27;4.53;;;17.80;1.00;;;;;;6235233;22;20415;-85
2022/05/01 13:12:05;;;;;;;11.60;4.07;;;17.80;1.00;;;;;;6135561;22;20561;-85
2022/05/01 13:24:45;;;;;;;8.93;3.60;;;17.70;1.00;;;;;;6071809;23;20567;-82
2022/05/01 16:21:27;;;;;;;;;;;;;;;;;;;;;
2022/05/01 16:28:17;;;;;;;11.43;4.70;;;20.70;1.00;;;;;;6131015;23;20483;-86
2022/05/01 18:19:07;;;;;;;;;;;;;;;;;;;;;
2022/05/01 18:28:18;;;;;;;9.10;4.50;;;15.60;1.00;;;;;;6124463;23;21336;-86
2022/05/01 18:31:08;;;;;;;14.70;5.30;;;15.50;1.00;;;;;;6281737;22;20406;-84
2022/05/01 18:33:49;;;;;;;13.80;6.40;;;15.40;1.00;;;;;;6276713;22;20518;-85
2022/05/01 18:36:17;;;;;;;9.90;4.67;;;15.30;1.00;;;;;;6277826;22;20443;-85
2022/05/01 18:38:47;;;;;;;13.30;5.50;;;15.20;1.00;;;;;;6275940;22;20390;-84
2022/05/01 18:41:21;;;;;;;10.37;4.50;;;15.20;1.00;;;;;;6275641;22;20423;-85
2022/05/01 18:43:52;;;;;;;8.33;4.53;;;15.20;1.00;;;;;;6277617;22;20894;-86
2022/05/01 18:46:28;;;;;;;9.30;4.90;;;15.10;1.00;;;;;;6276781;22;21333;-86
2022/05/01 18:49:18;;;;;;;8.87;4.50;;;15.00;1.00;;;;;;6275560;22;20474;-85
2022/05/01 18:51:58;;;;;;;11.63;5.30;;;15.00;1.00;;;;;;6275106;22;20995;-85
2022/05/01 18:54:56;;;;;;;8.60;4.73;;;15.00;1.00;;;;;;6276403;22;20460;-85
2022/05/01 18:57:48;;;;;;;;;;;;;;;;;;;;;
2022/05/01 19:00:46;;;;;;;9.23;4.60;;;14.90;1.00;;;;;;6275333;22;41367;-86
2022/05/01 19:03:25;;;;;;;8.60;4.60;;;14.80;1.00;;;;;;6275445;22;20970;-86
2022/05/01 19:06:08;;;;;;;9.57;4.80;;;14.80;1.00;;;;;;6277038;22;20429;-86
2022/05/01 19:09:05;;;;;;;9.87;5.03;;;14.80;1.00;;;;;;6271510;22;20423;-85
2022/05/01 19:12:15;;;;;;;8.40;4.23;;;14.80;1.00;;;;;;6265927;22;20415;-84
2022/05/01 19:15:28;;;;;;;9.23;4.47;;;14.80;1.00;;;;;;6237612;22;20428;-85
2022/05/01 19:18:25;;;;;;;12.63;4.90;;;14.80;1.00;;;;;;6111043;23;21262;-85
2022/05/01 20:34:04;;;;;;;11.50;7.13;;;13.30;1.00;;;;;;5956723;23;20483;-85
2022/05/01 20:36:44;;;;;;;12.33;6.57;;;13.30;1.00;;;;;;6129840;22;20415;-86
2022/05/01 20:39:46;;;;;;;9.27;6.17;;;13.30;1.00;;;;;;6248912;22;20506;-85
2022/05/01 20:43:07;;;;;;;10.90;6.17;;;13.20;1.00;;;;;;6246588;22;20861;-85
2022/05/01 20:45:57;;;;;;;11.23;6.73;;;13.30;1.00;;;;;;6178936;22;20933;-84
2022/05/01 20:48:47;;;;;;;13.37;6.87;;;13.30;1.00;;;;;;6244814;22;20524;-86
2022/05/01 20:51:21;;;;;;;12.47;7.00;;;13.30;1.00;;;;;;6244562;22;20412;-84
2022/05/01 20:53:53;;;;;;;10.97;8.03;;;13.30;1.00;;;;;;6246698;22;20458;-83
2022/05/01 20:56:21;;;;;;;11.20;6.90;;;13.20;1.00;;;;;;6244423;22;20487;-84
2022/05/01 20:58:51;;;;;;;11.67;6.87;;;13.20;1.00;;;;;;6244609;22;20523;-85
2022/05/01 21:01:18;;;;;;;13.17;7.03;;;13.20;1.00;;;;;;6245143;22;20486;-84
